Time;durP1;ratioP1;P1;durP2;ratioP2;P2;SDS_P1;SDS_P2;PMS_P1;PMS_P2;Temp;Humidity;BMP_temperature;BMP_pressure;BME280_temperature;BME280_humidity;BME280_pressure;Samples;Min_cycle;Max_cycle;Signal;HPM_P1;HPM_P2
2022/08/01 00:01:24;;;;;;;532.75;496.48;;;17.90;99.90;;;;;;5072810;28;20387;-61
2022/08/01 00:03:50;;;;;;;562.47;524.95;;;17.90;99.90;;;;;;5059548;28;20764;-61
2022/08/01 00:06:16;;;;;;;553.92;515.80;;;17.90;99.90;;;;;;5060871;28;20062;-61
2022/08/01 00:08:41;;;;;;;542.97;508.08;;;17.90;99.90;;;;;;5072869;28;20147;-61
2022/08/01 00:11:09;;;;;;;570.35;530.78;;;17.90;99.90;;;;;;5073823;28;20040;-61
2022/08/01 00:13:35;;;;;;;528.83;493.00;;;17.90;99.90;;;;;;5073790;28;20055;-61
2022/08/01 00:16:01;;;;;;;506.85;474.15;;;18.00;99.90;;;;;;5072244;28;20142;-61
2022/08/01 00:18:26;;;;;;;588.03;546.05;;;17.90;99.90;;;;;;5073576;28;20048;-61
2022/08/01 00:20:52;;;;;;;630.38;586.40;;;17.90;99.90;;;;;;5073742;28;20044;-61
2022/08/01 00:23:18;;;;;;;579.30;538.38;;;17.90;99.90;;;;;;5072393;28;20041;-61
2022/08/01 00:25:44;;;;;;;481.58;451.48;;;18.00;99.90;;;;;;5073430;28;20063;-61
2022/08/01 00:28:10;;;;;;;563.28;523.58;;;18.00;99.90;;;;;;5073558;28;20112;-61
2022/08/01 00:30:36;;;;;;;599.85;558.95;;;17.90;99.90;;;;;;5072662;28;20407;-61
2022/08/01 00:33:02;;;;;;;551.10;512.95;;;18.00;99.90;;;;;;5073325;28;20040;-61
2022/08/01 00:35:28;;;;;;;608.13;567.53;;;18.00;99.90;;;;;;5073183;28;20553;-61
2022/08/01 00:37:54;;;;;;;529.78;496.45;;;18.00;99.90;;;;;;5072690;28;20092;-61
2022/08/01 00:40:20;;;;;;;616.25;575.78;;;18.00;99.90;;;;;;5073159;28;20075;-61
2022/08/01 00:42:45;;;;;;;597.80;559.55;;;17.90;99.90;;;;;;5072878;28;20049;-61
2022/08/01 00:45:12;;;;;;;559.28;524.78;;;17.90;99.90;;;;;;5060745;28;20056;-61
2022/08/01 00:47:38;;;;;;;543.42;509.38;;;17.90;99.90;;;;;;5052717;28;20423;-61
2022/08/01 00:50:05;;;;;;;530.45;497.33;;;17.90;99.90;;;;;;5052594;28;20491;-61
2022/08/01 00:52:31;;;;;;;546.53;513.28;;;17.90;99.90;;;;;;5052255;28;20550;-61
2022/08/01 00:54:57;;;;;;;573.33;537.15;;;17.90;99.90;;;;;;5052668;28;20056;-61
2022/08/01 00:57:23;;;;;;;526.35;494.20;;;17.90;99.90;;;;;;5053329;28;20053;-61
2022/08/01 00:59:49;;;;;;;529.40;496.95;;;17.90;99.90;;;;;;5051646;28;20076;-61
2022/08/01 01:02:15;;;;;;;534.95;502.23;;;17.80;99.90;;;;;;5052266;28;20547;-61
2022/08/01 01:04:42;;;;;;;472.58;445.83;;;17.90;99.90;;;;;;5052334;28;20136;-61
2022/08/01 01:07:14;;;;;;;552.22;518.83;;;17.80;99.90;;;;;;5052771;28;20083;-61
2022/08/01 01:09:49;;;;;;;531.72;499.55;;;17.80;99.90;;;;;;5052225;28;20051;-61
2022/08/01 01:12:28;;;;;;;498.17;469.35;;;17.80;99.90;;;;;;5051803;28;20049;-61
2022/08/01 01:15:04;;;;;;;458.92;432.17;;;17.80;99.90;;;;;;5053038;28;20064;-61
2022/08/01 01:17:52;;;;;;;564.30;529.33;;;17.70;99.90;;;;;;5052262;28;20454;-61
2022/08/01 01:20:24;;;;;;;516.70;485.75;;;17.70;99.90;;;;;;5051902;28;20479;-61
2022/08/01 01:22:53;;;;;;;487.17;458.65;;;17.70;99.90;;;;;;5017844;28;20475;-61
2022/08/01 01:25:36;;;;;;;483.60;456.85;;;17.70;99.90;;;;;;5052124;28;20088;-61
2022/08/01 01:28:32;;;;;;;471.45;445.27;;;17.70;99.90;;;;;;5051961;28;20128;-61
2022/08/01 01:30:59;;;;;;;491.73;463.92;;;17.70;99.90;;;;;;5052226;28;20180;-61
2022/08/01 01:33:28;;;;;;;490.85;461.73;;;17.70;99.90;;;;;;5051773;28;20526;-61
2022/08/01 01:36:00;;;;;;;461.80;435.30;;;17.70;99.90;;;;;;5052135;28;20057;-61
2022/08/01 01:38:31;;;;;;;458.08;433.50;;;17.70;99.90;;;;;;5052295;28;20545;-61
2022/08/01 01:40:58;;;;;;;509.00;482.08;;;17.70;99.90;;;;;;5051496;28;20527;-61
2022/08/01 01:43:26;;;;;;;408.15;386.45;;;17.70;99.90;;;;;;5052287;28;20099;-61
2022/08/01 01:45:53;;;;;;;430.63;407.42;;;17.70;99.90;;;;;;5051634;28;20049;-61
2022/08/01 01:48:22;;;;;;;399.20;378.25;;;17.70;99.90;;;;;;5051876;28;20081;-61
2022/08/01 01:50:49;;;;;;;480.60;453.60;;;17.70;99.90;;;;;;5034581;28;20131;-61
2022/08/01 01:53:18;;;;;;;424.23;400.70;;;17.70;99.90;;;;;;5034108;28;20098;-60
2022/08/01 01:55:47;;;;;;;437.48;413.40;;;17.70;99.90;;;;;;5051611;28;20119;-61
2022/08/01 01:58:14;;;;;;;432.40;408.08;;;17.70;99.90;;;;;;5052138;28;20053;-61
2022/08/01 02:00:44;;;;;;;475.58;449.25;;;17.60;99.90;;;;;;5051760;28;20055;-61
2022/08/01 02:03:12;;;;;;;457.20;431.85;;;17.60;99.90;;;;;;5051556;28;20049;-61
2022/08/01 02:05:39;;;;;;;471.00;443.58;;;17.60;99.90;;;;;;5052471;28;20053;-61
2022/08/01 02:08:07;;;;;;;464.40;437.75;;;17.60;99.90;;;;;;5051343;28;20048;-61
2022/08/01 02:10:35;;;;;;;503.95;474.48;;;17.60;99.90;;;;;;5052073;28;20052;-61
2022/08/01 02:13:04;;;;;;;486.30;458.30;;;17.60;99.90;;;;;;5052368;28;20434;-61
2022/08/01 02:15:32;;;;;;;506.83;477.20;;;17.50;99.90;;;;;;5053582;28;20048;-61
2022/08/01 02:18:00;;;;;;;476.38;449.10;;;17.50;99.90;;;;;;5056312;28;20131;-61
2022/08/01 02:20:29;;;;;;;487.77;459.67;;;17.50;99.90;;;;;;5055395;28;20071;-61
2022/08/01 02:23:05;;;;;;;447.73;422.08;;;17.50;99.90;;;;;;5054739;28;20495;-61
2022/08/01 02:25:38;;;;;;;425.08;401.83;;;17.40;99.90;;;;;;5055642;28;20048;-61
2022/08/01 02:28:07;;;;;;;;;;;17.40;99.90;;;;;;5045110;28;20045;-61
2022/08/01 02:30:38;;;;;;;369.63;350.55;;;17.40;99.90;;;;;;5036755;28;20015;-61
2022/08/01 02:33:12;;;;;;;382.05;362.55;;;17.40;99.90;;;;;;5056023;28;20461;-61
2022/08/01 02:35:43;;;;;;;461.48;436.25;;;17.30;99.90;;;;;;5055540;28;20190;-61
2022/08/01 02:38:11;;;;;;;435.00;411.02;;;17.30;99.90;;;;;;5054338;28;20487;-61
2022/08/01 02:40:40;;;;;;;440.80;415.40;;;17.30;99.90;;;;;;5055575;28;20056;-61
2022/08/01 02:43:08;;;;;;;458.60;432.77;;;17.20;99.90;;;;;;5054594;28;20044;-61
2022/08/01 02:45:37;;;;;;;460.60;434.38;;;17.20;99.90;;;;;;5069129;28;20060;-61
2022/08/01 02:48:11;;;;;;;475.05;448.17;;;17.20;99.90;;;;;;5075466;28;20075;-61
2022/08/01 02:50:41;;;;;;;470.65;443.33;;;17.20;99.90;;;;;;5056626;28;20048;-61
2022/08/01 02:53:10;;;;;;;410.27;387.83;;;17.20;99.90;;;;;;5075105;28;20045;-61
2022/08/01 02:55:37;;;;;;;415.50;392.52;;;17.10;99.90;;;;;;5075020;28;20052;-61
2022/08/01 02:58:04;;;;;;;478.73;452.83;;;17.10;99.90;;;;;;5074815;28;20052;-61
2022/08/01 03:00:30;;;;;;;407.52;384.40;;;17.10;99.90;;;;;;5074731;28;20044;-61
2022/08/01 03:02:59;;;;;;;425.85;402.15;;;17.10;99.90;;;;;;5074620;28;20055;-61
2022/08/01 03:05:25;;;;;;;443.63;417.90;;;17.20;99.90;;;;;;5074510;28;20037;-61
2022/08/01 03:07:53;;;;;;;378.42;356.88;;;17.20;99.90;;;;;;5075143;28;20044;-61
2022/08/01 03:10:20;;;;;;;421.13;396.40;;;17.20;99.90;;;;;;5075079;28;20119;-61
2022/08/01 03:12:48;;;;;;;362.00;342.17;;;17.20;99.90;;;;;;5075467;28;20123;-61
2022/08/01 03:15:15;;;;;;;404.50;382.02;;;17.20;99.90;;;;;;5074607;28;20044;-61
2022/08/01 03:17:44;;;;;;;448.63;423.23;;;17.20;99.90;;;;;;5057186;28;20040;-61
2022/08/01 03:20:13;;;;;;;461.35;434.83;;;17.20;99.90;;;;;;5073796;28;20128;-61
2022/08/01 03:22:42;;;;;;;381.80;360.08;;;17.20;99.90;;;;;;5074485;28;20052;-61
2022/08/01 03:25:09;;;;;;;404.40;383.42;;;17.10;99.90;;;;;;5074741;28;20470;-61
2022/08/01 03:27:37;;;;;;;350.48;331.75;;;17.10;99.90;;;;;;5058554;28;20080;-61
2022/08/01 03:30:04;;;;;;;564.80;527.78;;;17.10;99.90;;;;;;5072377;28;20075;-61
2022/08/01 03:32:31;;;;;;;439.52;414.17;;;17.10;99.90;;;;;;5094332;28;20115;-61
2022/08/01 03:34:57;;;;;;;459.58;432.77;;;17.10;99.90;;;;;;5095032;28;20123;-61
2022/08/01 03:37:29;;;;;;;549.45;514.45;;;17.00;99.90;;;;;;5094628;28;20044;-61
2022/08/01 03:40:03;;;;;;;525.03;491.77;;;17.00;99.90;;;;;;5091006;28;20536;-61
2022/08/01 03:42:37;;;;;;;570.08;532.15;;;17.00;99.90;;;;;;5074313;28;20086;-61
2022/08/01 03:45:09;;;;;;;474.35;444.15;;;17.00;99.90;;;;;;5073915;28;20057;-61
2022/08/01 03:47:35;;;;;;;590.85;552.25;;;16.90;99.90;;;;;;5081099;28;20055;-61
2022/08/01 03:50:05;;;;;;;508.52;476.73;;;17.00;99.90;;;;;;5094552;28;20094;-61
2022/08/01 03:52:34;;;;;;;388.33;365.70;;;16.90;99.90;;;;;;5094210;28;20119;-61
2022/08/01 03:55:07;;;;;;;448.80;421.40;;;16.80;99.90;;;;;;5075681;28;20048;-61
2022/08/01 03:57:34;;;;;;;418.15;393.88;;;16.80;99.90;;;;;;5093890;28;20094;-61
2022/08/01 04:00:01;;;;;;;427.67;402.33;;;16.70;99.90;;;;;;5094127;28;20044;-61
2022/08/01 04:02:28;;;;;;;386.92;364.40;;;16.60;99.90;;;;;;5077910;28;20041;-61
2022/08/01 04:04:54;;;;;;;590.20;550.63;;;16.60;99.90;;;;;;5062803;28;20052;-61
2022/08/01 04:07:23;;;;;;;533.97;497.80;;;16.50;99.90;;;;;;5075666;28;20052;-61
2022/08/01 04:09:49;;;;;;;562.08;523.05;;;16.50;99.90;;;;;;5093580;28;20052;-61
2022/08/01 04:12:15;;;;;;;564.25;524.42;;;16.50;99.90;;;;;;5072680;28;20062;-61
2022/08/01 04:14:40;;;;;;;580.33;539.42;;;16.40;99.90;;;;;;5084410;28;20383;-61
2022/08/01 04:17:06;;;;;;;580.70;541.30;;;16.40;99.90;;;;;;5094041;28;20063;-60
2022/08/01 04:19:32;;;;;;;601.85;561.15;;;16.40;99.90;;;;;;5093979;28;20044;-61
2022/08/01 04:21:58;;;;;;;669.08;621.95;;;16.30;99.90;;;;;;5078760;28;20049;-61
2022/08/01 04:24:25;;;;;;;612.38;570.88;;;16.30;99.90;;;;;;5092841;28;20040;-61
2022/08/01 04:26:52;;;;;;;600.42;558.28;;;16.40;99.90;;;;;;5084248;28;20044;-61
2022/08/01 04:29:20;;;;;;;592.38;546.00;;;16.40;99.90;;;;;;5072539;28;20125;-61
2022/08/01 04:31:48;;;;;;;585.58;540.42;;;16.40;99.90;;;;;;5080036;28;20082;-60
2022/08/01 04:34:17;;;;;;;613.08;568.30;;;16.40;99.90;;;;;;5093870;28;20097;-61
2022/08/01 04:36:45;;;;;;;558.53;519.35;;;16.40;99.90;;;;;;5092247;28;20127;-61
2022/08/01 04:39:14;;;;;;;626.88;581.78;;;16.40;99.90;;;;;;5093446;28;20482;-61
2022/08/01 04:41:41;;;;;;;665.97;617.75;;;16.40;99.90;;;;;;5092266;28;20059;-61
2022/08/01 04:44:07;;;;;;;588.90;547.15;;;16.40;99.90;;;;;;5092571;28;20113;-61
2022/08/01 04:46:34;;;;;;;535.05;496.95;;;16.40;99.90;;;;;;5093341;28;20083;-60
2022/08/01 04:49:01;;;;;;;620.15;576.42;;;16.50;99.90;;;;;;5093026;28;20047;-61
2022/08/01 04:51:27;;;;;;;615.47;568.95;;;16.50;99.90;;;;;;5082129;28;20049;-61
2022/08/01 04:53:53;;;;;;;702.65;650.47;;;16.50;99.90;;;;;;5072161;28;20095;-61
2022/08/01 04:56:20;;;;;;;591.63;550.67;;;16.60;99.90;;;;;;5072419;28;20040;-61
2022/08/01 04:58:46;;;;;;;595.15;552.63;;;16.60;99.90;;;;;;5063963;28;20047;-61
2022/08/01 05:01:13;;;;;;;605.05;561.10;;;16.60;99.90;;;;;;5093460;28;20051;-61
2022/08/01 05:03:39;;;;;;;617.00;573.03;;;16.70;99.90;;;;;;5080114;28;20040;-61
2022/08/01 05:06:05;;;;;;;612.88;569.58;;;16.80;99.90;;;;;;5070678;28;20383;-61
2022/08/01 05:08:31;;;;;;;591.53;548.90;;;16.80;99.90;;;;;;5072042;28;20040;-61
2022/08/01 05:10:56;;;;;;;649.35;602.10;;;16.90;99.90;;;;;;5073690;28;20036;-61
2022/08/01 05:13:22;;;;;;;625.97;579.40;;;17.00;99.90;;;;;;5071926;28;20093;-61
2022/08/01 05:15:48;;;;;;;681.13;629.05;;;17.00;99.90;;;;;;5074018;28;20429;-61
2022/08/01 05:18:14;;;;;;;684.67;634.08;;;17.00;99.90;;;;;;5071049;28;20047;-61
2022/08/01 05:20:41;;;;;;;713.85;658.53;;;17.10;99.90;;;;;;5072070;28;20513;-60
2022/08/01 05:23:07;;;;;;;608.25;565.80;;;17.20;99.90;;;;;;5072813;28;20040;-61
2022/08/01 05:25:33;;;;;;;594.90;554.97;;;17.20;99.90;;;;;;5084668;28;20054;-60
2022/08/01 05:27:59;;;;;;;576.65;536.92;;;17.20;99.90;;;;;;5073435;28;20135;-60
2022/08/01 05:30:25;;;;;;;621.45;574.58;;;17.20;99.90;;;;;;5072634;28;20527;-60
2022/08/01 05:32:51;;;;;;;610.78;567.22;;;17.20;99.90;;;;;;5071959;28;20041;-61
2022/08/01 05:35:16;;;;;;;606.55;561.80;;;17.30;99.90;;;;;;5092573;28;20047;-60
2022/08/01 05:37:42;;;;;;;691.25;636.17;;;17.30;99.90;;;;;;5092852;28;20036;-61
2022/08/01 05:40:08;;;;;;;649.00;600.15;;;17.30;99.90;;;;;;5087857;28;20474;-60
2022/08/01 05:42:34;;;;;;;655.05;605.55;;;17.30;99.90;;;;;;5071777;28;20040;-61
2022/08/01 05:45:00;;;;;;;586.97;546.83;;;17.30;99.90;;;;;;5072233;28;20052;-61
2022/08/01 05:47:26;;;;;;;509.50;476.55;;;17.40;99.90;;;;;;5071861;28;20120;-60
2022/08/01 05:49:51;;;;;;;677.92;625.78;;;17.40;99.90;;;;;;5073721;28;20497;-60
2022/08/01 05:52:17;;;;;;;473.98;445.05;;;17.40;99.90;;;;;;5076331;28;20533;-61
2022/08/01 05:54:43;;;;;;;609.65;568.28;;;17.40;99.90;;;;;;5057637;28;20051;-60
2022/08/01 05:57:09;;;;;;;521.13;487.08;;;17.40;99.90;;;;;;5076307;28;20051;-61
2022/08/01 05:59:34;;;;;;;520.38;486.30;;;17.40;99.90;;;;;;5077662;28;20036;-60
2022/08/01 06:02:00;;;;;;;541.08;505.08;;;17.40;99.90;;;;;;5095884;28;20143;-60
2022/08/01 06:04:26;;;;;;;542.10;503.40;;;17.40;99.90;;;;;;5076893;28;20124;-60
2022/08/01 06:06:52;;;;;;;553.55;516.42;;;17.40;99.90;;;;;;5076212;28;20588;-61
2022/08/01 06:09:18;;;;;;;522.42;489.95;;;17.40;99.90;;;;;;5066535;28;20058;-61
2022/08/01 06:11:43;;;;;;;525.20;490.80;;;17.40;99.90;;;;;;5077782;28;20104;-61
2022/08/01 06:14:09;;;;;;;626.28;582.47;;;17.40;99.90;;;;;;5095861;28;20119;-60
2022/08/01 06:16:35;;;;;;;583.45;543.20;;;17.40;99.90;;;;;;5096506;28;20044;-61
2022/08/01 06:19:01;;;;;;;560.42;521.85;;;17.40;99.90;;;;;;5079046;28;20558;-61
2022/08/01 06:21:26;;;;;;;483.17;452.02;;;17.40;99.90;;;;;;5075244;28;20095;-61
2022/08/01 06:23:52;;;;;;;540.15;504.90;;;17.40;99.90;;;;;;5076018;28;20051;-60
2022/08/01 06:26:19;;;;;;;503.70;471.02;;;17.40;99.90;;;;;;5076600;28;20043;-60
2022/08/01 06:28:45;;;;;;;485.10;455.30;;;17.40;99.90;;;;;;5095278;28;20549;-60
2022/08/01 06:31:12;;;;;;;484.65;453.75;;;17.40;99.90;;;;;;5084382;28;20112;-60
2022/08/01 06:33:38;;;;;;;524.33;490.13;;;17.40;99.90;;;;;;5057447;28;20123;-60
2022/08/01 06:36:04;;;;;;;525.55;490.25;;;17.40;99.90;;;;;;5074602;28;20128;-60
2022/08/01 06:38:29;;;;;;;508.55;474.00;;;17.30;99.90;;;;;;5075542;28;20512;-60
2022/08/01 06:40:55;;;;;;;535.70;495.65;;;17.30;99.90;;;;;;5075008;28;20093;-60
2022/08/01 06:43:21;;;;;;;525.72;491.15;;;17.40;99.90;;;;;;5074810;28;20161;-60
2022/08/01 06:45:47;;;;;;;496.23;464.42;;;17.40;99.90;;;;;;5075008;28;20064;-60
2022/08/01 06:48:13;;;;;;;490.13;456.17;;;17.40;99.90;;;;;;5075282;28;20063;-60
2022/08/01 06:50:39;;;;;;;491.42;458.88;;;17.50;99.90;;;;;;5074840;28;20053;-60
2022/08/01 06:53:05;;;;;;;455.42;427.30;;;17.50;99.90;;;;;;5075336;28;20047;-61
2022/08/01 06:55:31;;;;;;;536.20;500.80;;;17.50;99.90;;;;;;5075320;28;20048;-60
2022/08/01 06:57:57;;;;;;;447.75;421.55;;;17.50;99.90;;;;;;5074785;28;20041;-60
2022/08/01 07:00:24;;;;;;;417.05;392.35;;;17.60;99.90;;;;;;5074553;28;20462;-60
2022/08/01 07:02:51;;;;;;;396.35;374.30;;;17.70;99.90;;;;;;5074690;28;20094;-60
2022/08/01 07:05:17;;;;;;;407.40;385.10;;;17.70;99.90;;;;;;5074374;28;20127;-60
2022/08/01 07:07:43;;;;;;;430.33;403.95;;;17.70;99.90;;;;;;5075003;28;20510;-60
2022/08/01 07:10:09;;;;;;;454.73;425.92;;;17.70;99.90;;;;;;5057019;28;20052;-61
2022/08/01 07:12:37;;;;;;;413.23;389.55;;;17.70;99.90;;;;;;5091896;28;20071;-61
2022/08/01 07:15:06;;;;;;;446.65;420.00;;;17.80;99.90;;;;;;5095236;28;20059;-60
2022/08/01 07:17:32;;;;;;;388.35;367.20;;;17.70;99.90;;;;;;5082701;28;20617;-60
2022/08/01 07:19:57;;;;;;;435.38;409.65;;;17.70;99.90;;;;;;5074200;28;20052;-60
2022/08/01 07:22:23;;;;;;;453.67;426.20;;;17.70;99.90;;;;;;5074966;28;20086;-60
2022/08/01 07:24:49;;;;;;;415.80;392.05;;;17.80;99.90;;;;;;5074120;28;20091;-61
2022/08/01 07:27:15;;;;;;;364.50;343.60;;;17.80;99.90;;;;;;5061655;28;20081;-60
2022/08/01 07:29:40;;;;;;;449.25;422.92;;;17.80;99.90;;;;;;5070203;28;20044;-60
2022/08/01 07:32:06;;;;;;;446.35;421.67;;;17.80;99.90;;;;;;5074073;28;20406;-61
2022/08/01 07:34:32;;;;;;;397.13;374.77;;;17.80;99.90;;;;;;5074544;28;20044;-61
2022/08/01 07:36:58;;;;;;;458.98;431.27;;;17.90;99.90;;;;;;5074444;28;20048;-60
2022/08/01 07:39:23;;;;;;;420.98;393.48;;;18.00;99.90;;;;;;5073886;28;20083;-60
2022/08/01 07:41:49;;;;;;;443.35;418.27;;;18.10;99.90;;;;;;5074049;28;20056;-60
2022/08/01 07:44:15;;;;;;;427.23;399.25;;;18.20;99.90;;;;;;5074420;28;20064;-60
2022/08/01 07:46:41;;;;;;;425.05;400.10;;;18.30;99.90;;;;;;5073680;28;20080;-61
2022/08/01 07:49:07;;;;;;;448.45;421.40;;;18.40;99.90;;;;;;5074101;28;20037;-60
2022/08/01 07:51:33;;;;;;;389.80;368.05;;;18.50;99.90;;;;;;5073259;28;20048;-60
2022/08/01 07:53:59;;;;;;;474.38;446.60;;;18.70;99.90;;;;;;5073047;28;20040;-61
2022/08/01 07:56:26;;;;;;;440.40;415.92;;;18.70;99.90;;;;;;5073301;28;20051;-60
2022/08/01 07:58:51;;;;;;;388.42;365.98;;;18.70;99.90;;;;;;5072706;28;20104;-60
2022/08/01 08:01:17;;;;;;;417.98;396.58;;;18.70;99.90;;;;;;5071800;28;20044;-60
2022/08/01 08:03:43;;;;;;;555.17;522.08;;;18.80;99.90;;;;;;5072353;28;20032;-60
2022/08/01 08:06:09;;;;;;;619.40;580.40;;;18.80;99.90;;;;;;5072724;28;20375;-61
2022/08/01 08:08:35;;;;;;;638.58;599.40;;;18.80;99.90;;;;;;5055197;28;20045;-61
2022/08/01 08:11:01;;;;;;;630.10;591.85;;;18.90;99.90;;;;;;5077649;28;20040;-60
2022/08/01 08:13:27;;;;;;;551.45;520.47;;;18.90;99.90;;;;;;5081089;28;20067;-60
2022/08/01 08:15:53;;;;;;;606.17;570.33;;;19.10;99.90;;;;;;5072901;28;20117;-60
2022/08/01 08:18:19;;;;;;;635.33;596.50;;;19.30;99.90;;;;;;5073626;28;20047;-61
2022/08/01 08:20:44;;;;;;;652.28;612.70;;;19.50;99.90;;;;;;5072743;28;20041;-61
2022/08/01 08:25:55;;;;;;;606.20;569.80;;;19.60;99.90;;;;;;5091590;28;20448;-61
2022/08/01 08:28:21;;;;;;;586.42;551.67;;;19.70;99.90;;;;;;5072990;28;20040;-61
2022/08/01 08:30:47;;;;;;;643.17;604.10;;;19.90;99.90;;;;;;5081987;28;20043;-60
2022/08/01 08:33:12;;;;;;;591.58;555.95;;;19.90;99.90;;;;;;5075472;28;20488;-61
2022/08/01 08:35:41;;;;;;;544.60;512.83;;;19.90;99.90;;;;;;5074850;28;20044;-61
2022/08/01 08:38:07;;;;;;;509.80;481.30;;;19.80;99.90;;;;;;5093716;28;20153;-61
2022/08/01 08:40:35;;;;;;;552.58;521.55;;;19.70;99.90;;;;;;5049722;28;20045;-61
2022/08/01 08:43:03;;;;;;;470.48;445.90;;;19.60;99.90;;;;;;5043564;28;20045;-61
2022/08/01 08:45:30;;;;;;;529.65;500.13;;;19.40;99.90;;;;;;5052698;28;20071;-61
2022/08/01 08:47:57;;;;;;;557.83;524.95;;;19.40;99.90;;;;;;5070921;28;20050;-59
2022/08/01 08:50:24;;;;;;;649.30;609.38;;;19.50;99.90;;;;;;5071446;28;20049;-59
2022/08/01 08:52:52;;;;;;;619.67;582.85;;;19.60;99.90;;;;;;5073133;28;20076;-59
2022/08/01 08:55:19;;;;;;;603.30;567.55;;;19.60;99.90;;;;;;5072943;28;20041;-59
2022/08/01 08:57:45;;;;;;;611.53;575.15;;;19.60;99.90;;;;;;5084194;28;20048;-59
2022/08/01 09:00:12;;;;;;;589.20;554.15;;;19.70;99.90;;;;;;5085807;28;20044;-59
2022/08/01 09:02:46;;;;;;;520.53;491.30;;;19.70;99.90;;;;;;5068340;28;20045;-59
2022/08/01 09:05:13;;;;;;;531.13;501.35;;;19.90;99.90;;;;;;5052961;28;20098;-59
2022/08/01 09:07:39;;;;;;;544.65;514.17;;;20.00;99.90;;;;;;5073032;28;20040;-59
2022/08/01 09:10:06;;;;;;;604.60;568.78;;;20.10;99.90;;;;;;5071932;28;20131;-59
2022/08/01 09:12:31;;;;;;;446.10;423.55;;;19.90;99.90;;;;;;5090007;28;20054;-59
2022/08/01 09:14:58;;;;;;;466.65;442.17;;;19.80;99.90;;;;;;5087458;28;20044;-59
2022/08/01 09:17:23;;;;;;;506.98;477.80;;;19.90;99.90;;;;;;5078876;28;20049;-60
2022/08/01 09:19:52;;;;;;;535.83;506.50;;;20.00;99.90;;;;;;5063554;28;20158;-60
2022/08/01 09:22:22;;;;;;;489.83;463.95;;;20.20;99.90;;;;;;5052742;28;20482;-60
2022/08/01 09:24:59;;;;;;;524.92;495.85;;;20.50;99.90;;;;;;5074547;28;20078;-60
2022/08/01 09:27:25;;;;;;;502.98;475.40;;;20.70;99.90;;;;;;5079853;28;20044;-60
2022/08/01 09:29:53;;;;;;;495.40;468.85;;;20.90;99.90;;;;;;5092743;28;20567;-60
2022/08/01 09:32:20;;;;;;;448.27;425.73;;;21.00;99.90;;;;;;5079527;28;20051;-60
2022/08/01 09:34:46;;;;;;;500.52;474.05;;;21.10;99.90;;;;;;5092612;28;20470;-60
2022/08/01 09:37:14;;;;;;;491.00;465.10;;;21.10;99.90;;;;;;5080239;28;20115;-60
2022/08/01 09:39:42;;;;;;;442.85;419.67;;;21.10;99.90;;;;;;5071348;28;20175;-60
2022/08/01 09:42:23;;;;;;;522.70;494.00;;;21.00;99.90;;;;;;5067555;28;20067;-60
2022/08/01 09:44:49;;;;;;;458.13;434.77;;;20.70;99.90;;;;;;5081144;28;20089;-60
2022/08/01 09:47:16;;;;;;;368.33;350.65;;;20.40;99.90;;;;;;5051438;28;20052;-60
2022/08/01 09:49:43;;;;;;;394.75;375.60;;;20.40;99.90;;;;;;5055670;28;20128;-60
2022/08/01 09:52:14;;;;;;;412.88;392.65;;;20.60;99.90;;;;;;5071849;28;20048;-60
2022/08/01 09:54:40;;;;;;;445.65;422.60;;;20.90;99.90;;;;;;5076359;28;20067;-60
2022/08/01 09:57:13;;;;;;;476.83;451.30;;;21.10;99.90;;;;;;5060286;28;20086;-60
2022/08/01 09:59:42;;;;;;;476.85;451.70;;;21.20;99.90;;;;;;5055595;28;20045;-60
2022/08/01 10:02:28;;;;;;;453.77;430.77;;;21.20;99.90;;;;;;5058807;28;20042;-60
2022/08/01 10:04:54;;;;;;;444.50;422.30;;;21.10;99.90;;;;;;5065098;28;20056;-60
2022/08/01 10:07:20;;;;;;;369.48;351.38;;;21.00;99.90;;;;;;5072965;28;20190;-60
2022/08/01 10:09:46;;;;;;;389.60;370.33;;;20.90;99.90;;;;;;5051760;28;20044;-60
2022/08/01 10:12:16;;;;;;;357.38;340.40;;;21.00;99.90;;;;;;5075951;28;20048;-60
2022/08/01 10:14:43;;;;;;;406.27;386.15;;;21.30;99.90;;;;;;5071166;28;20052;-60
2022/08/01 10:17:14;;;;;;;509.55;482.05;;;21.60;99.90;;;;;;5071287;28;20044;-60
2022/08/01 10:19:41;;;;;;;434.00;412.02;;;21.90;99.90;;;;;;5071828;28;20037;-60
2022/08/01 10:22:10;;;;;;;604.42;568.53;;;22.20;99.90;;;;;;5071239;28;20506;-60
2022/08/01 10:24:38;;;;;;;427.95;406.73;;;22.40;99.90;;;;;;5071921;28;20084;-60
2022/08/01 10:27:08;;;;;;;339.48;322.63;;;22.50;99.90;;;;;;5090805;28;20498;-61
2022/08/01 10:29:42;;;;;;;387.33;368.67;;;22.40;99.90;;;;;;5091700;28;20173;-60
2022/08/01 10:32:09;;;;;;;182.38;174.15;;;22.10;99.90;;;;;;5092058;28;20394;-60
2022/08/01 10:34:36;;;;;;;148.63;141.85;;;21.90;99.90;;;;;;5082566;28;20044;-60
2022/08/01 10:37:03;;;;;;;117.57;112.25;;;21.80;99.90;;;;;;5056977;28;20084;-60
2022/08/01 10:39:31;;;;;;;187.70;179.05;;;21.90;99.90;;;;;;5074413;28;20094;-60
2022/08/01 10:41:57;;;;;;;338.45;322.23;;;22.20;99.90;;;;;;5074556;28;20049;-60
2022/08/01 10:44:25;;;;;;;221.15;210.77;;;22.60;99.30;;;;;;5075091;28;20056;-60
2022/08/01 10:46:55;;;;;;;292.80;279.33;;;22.90;98.90;;;;;;5075067;28;20053;-60
2022/08/01 10:49:23;;;;;;;417.33;396.02;;;23.30;98.80;;;;;;5074684;28;20048;-60
2022/08/01 10:51:49;;;;;;;192.40;183.80;;;23.30;96.90;;;;;;5075351;28;20385;-60
2022/08/01 10:54:15;;;;;;;184.48;176.65;;;23.20;97.60;;;;;;5075186;28;20045;-60
2022/08/01 10:56:48;;;;;;;544.10;514.85;;;24.10;97.90;;;;;;5074659;28;20086;-60
2022/08/01 10:59:21;;;;;;;621.33;585.55;;;24.40;96.80;;;;;;5057670;28;20053;-60
2022/08/01 11:01:58;;;;;;;;;;;24.60;95.60;;;;;;5076484;28;20041;-61
2022/08/01 11:04:44;;;;;;;653.70;614.63;;;24.10;95.70;;;;;;5073798;28;19921;-60
2022/08/01 11:07:20;;;;;;;691.45;648.38;;;23.60;95.60;;;;;;5071975;28;20051;-60
2022/08/01 11:09:48;;;;;;;723.35;676.50;;;23.50;96.00;;;;;;5073658;28;20044;-60
2022/08/01 11:12:16;;;;;;;727.65;680.40;;;23.70;96.10;;;;;;5075044;28;20044;-60
2022/08/01 11:15:00;;;;;;;765.53;714.40;;;23.80;96.60;;;;;;5074363;28;20048;-60
2022/08/01 11:17:34;;;;;;;739.95;691.20;;;23.50;94.30;;;;;;5073074;28;20216;-60
2022/08/01 11:20:06;;;;;;;764.58;714.08;;;22.90;95.60;;;;;;5073511;28;20127;-60
2022/08/01 11:22:32;;;;;;;786.22;733.95;;;23.00;96.40;;;;;;5073865;28;20498;-60
2022/08/01 11:24:59;;;;;;;754.80;702.70;;;23.80;95.50;;;;;;5074088;28;20052;-61
2022/08/01 11:27:27;;;;;;;781.75;729.40;;;24.20;94.90;;;;;;5080241;28;20095;-61
2022/08/01 11:30:08;;;;;;;609.70;567.30;;;24.60;94.60;;;;;;5079171;28;20394;-61
2022/08/01 11:32:50;;;;;;;791.97;737.75;;;24.90;92.80;;;;;;5073895;28;20417;-61
2022/08/01 11:35:16;;;;;;;735.00;685.47;;;24.40;92.00;;;;;;5074581;28;20155;-60
2022/08/01 11:37:42;;;;;;;715.92;669.60;;;24.10;92.40;;;;;;5091342;28;20048;-61
2022/08/01 11:40:27;;;;;;;728.78;682.05;;;23.90;93.30;;;;;;5087518;28;20498;-60
2022/08/01 11:43:12;;;;;;;767.83;716.05;;;24.10;93.70;;;;;;5071345;28;20123;-60
2022/08/01 11:45:55;;;;;;;760.72;708.95;;;24.40;93.10;;;;;;5073304;28;20056;-60
2022/08/01 11:48:22;;;;;;;731.05;683.42;;;24.40;92.50;;;;;;5073238;28;20056;-60
2022/08/01 11:50:50;;;;;;;768.35;716.17;;;24.60;91.70;;;;;;5058648;28;20036;-61
2022/08/01 11:53:18;;;;;;;694.53;647.63;;;25.00;91.60;;;;;;5086563;28;20044;-61
2022/08/01 11:55:48;;;;;;;783.00;728.38;;;25.30;90.10;;;;;;5077206;28;20048;-60
2022/08/01 11:58:15;;;;;;;1602.45;843.60;;;25.70;90.50;;;;;;5073884;28;20056;-61
2022/08/01 12:00:41;;;;;;;776.70;724.88;;;26.10;85.50;;;;;;5054763;28;20056;-60
2022/08/01 12:03:08;;;;;;;788.65;735.03;;;26.20;87.30;;;;;;5073247;28;20070;-60
2022/08/01 12:05:36;;;;;;;758.58;708.10;;;26.30;84.50;;;;;;5073927;28;20121;-61
2022/08/01 12:08:04;;;;;;;820.85;764.25;;;26.40;85.90;;;;;;5072753;28;20055;-61
2022/08/01 12:10:36;;;;;;;817.53;760.03;;;26.50;85.10;;;;;;5073264;28;20045;-61
2022/08/01 12:13:05;;;;;;;738.28;689.92;;;26.00;84.70;;;;;;5072489;28;20347;-60
2022/08/01 12:15:34;;;;;;;739.42;691.42;;;25.60;87.10;;;;;;5073084;28;20048;-61